Alpachiri, Argentina
Current Conditions -  °F | °C
As of 7:00 PM on Saturday 20 Dec 2014 (Local Time) from SANT Reporting Station
Scattered Clouds Scattered Clouds  
Wind Chill: 88°   Ceiling: Unl
Heat Index: 98°   Visibility: 6mi
Dew Point: 75°   Wind: 9mph
Humidity: 66%   Direction: 230°SW
Pressure: 29.35"   Gusts: NA
Location:  27.33°S, 65.75°W
Report Text: SANT 202200Z 23008KT 9999 FEW035 SCT040FEW050CB 31/24 Q0994
Loading
Personal Weather Stations






























Interactive Weather Map New forecast layout! Learn more

10-Day Weather Forecast

Advertisements
Track Severe Weather on mobile